Time;durP1;ratioP1;P1;durP2;ratioP2;P2;SDS_P1;SDS_P2;PMS_P1;PMS_P2;Temp;Humidity;BMP_temperature;BMP_pressure;BME280_temperature;BME280_humidity;BME280_pressure;Samples;Min_cycle;Max_cycle;Signal;HPM_P1;HPM_P2
2021/03/06 00:02:08;;;;;;;2.20;0.90;;;20.60;38.00;;;;;;6211356;22;20432;-79
2021/03/06 00:04:34;;;;;;;1.30;0.82;;;20.60;37.80;;;;;;6219604;22;20016;-79
2021/03/06 00:07:00;;;;;;;2.08;0.77;;;20.60;37.80;;;;;;6223332;22;20095;-79
2021/03/06 00:09:25;;;;;;;1.73;1.02;;;20.60;38.00;;;;;;6248655;22;20049;-79
2021/03/06 00:11:51;;;;;;;2.30;0.88;;;20.60;37.90;;;;;;6248924;22;20011;-79
2021/03/06 00:14:16;;;;;;;2.35;0.75;;;20.60;38.20;;;;;;6222377;22;20934;-79
2021/03/06 00:16:42;;;;;;;1.85;1.20;;;20.60;38.10;;;;;;6248544;22;20019;-79
2021/03/06 00:19:08;;;;;;;2.33;1.02;;;20.60;37.90;;;;;;6204200;22;20494;-79
2021/03/06 00:21:33;;;;;;;1.83;0.77;;;20.60;38.00;;;;;;6248731;22;20020;-79
2021/03/06 00:23:59;;;;;;;1.20;0.77;;;20.60;38.10;;;;;;6220225;22;20022;-78
2021/03/06 00:26:24;;;;;;;2.08;1.10;;;20.60;37.90;;;;;;6254720;22;20456;-79
2021/03/06 00:28:50;;;;;;;2.00;1.05;;;20.50;38.00;;;;;;6267937;22;20020;-79
2021/03/06 00:31:16;;;;;;;2.15;0.93;;;20.60;38.10;;;;;;6218616;22;20009;-79
2021/03/06 00:33:41;;;;;;;2.90;1.17;;;20.60;37.80;;;;;;6220643;23;20446;-79
2021/03/06 00:36:07;;;;;;;2.38;1.10;;;20.50;37.90;;;;;;6220004;22;20028;-79
2021/03/06 00:38:33;;;;;;;1.75;1.05;;;20.50;37.80;;;;;;6217664;23;20016;-79
2021/03/06 00:40:59;;;;;;;1.50;0.93;;;20.50;38.00;;;;;;6217732;22;20007;-79
2021/03/06 00:43:24;;;;;;;1.50;0.77;;;20.50;38.00;;;;;;6248851;22;20480;-79
2021/03/06 00:45:50;;;;;;;1.48;0.90;;;20.50;38.10;;;;;;6218041;23;20024;-79
2021/03/06 00:48:15;;;;;;;1.70;1.23;;;20.50;38.10;;;;;;6221128;23;20330;-79
2021/03/06 00:50:41;;;;;;;2.40;1.05;;;20.50;37.90;;;;;;6224812;22;20144;-78
2021/03/06 00:53:11;;;;;;;2.20;0.80;;;20.50;37.70;;;;;;6218062;23;20048;-79
2021/03/06 00:55:38;;;;;;;1.55;0.90;;;20.50;37.80;;;;;;6192918;22;20012;-78
2021/03/06 00:58:03;;;;;;;1.00;0.75;;;20.50;37.90;;;;;;6217997;22;20016;-79
2021/03/06 01:00:30;;;;;;;1.27;0.77;;;20.50;37.90;;;;;;6217747;23;20022;-79
2021/03/06 01:02:58;;;;;;;1.02;0.75;;;20.50;38.00;;;;;;6211968;22;20441;-79
2021/03/06 01:05:24;;;;;;;1.95;0.85;;;20.50;37.90;;;;;;6213888;23;20012;-79
2021/03/06 01:07:49;;;;;;;0.93;0.73;;;20.50;37.90;;;;;;6266870;22;20020;-79
2021/03/06 01:10:26;;;;;;;1.50;0.90;;;20.50;37.90;;;;;;6218228;23;20023;-79
2021/03/06 01:12:52;;;;;;;1.98;0.98;;;20.50;38.00;;;;;;6196856;22;20099;-79
2021/03/06 01:15:18;;;;;;;1.27;0.80;;;20.50;37.90;;;;;;6219901;22;20035;-79
2021/03/06 01:17:44;;;;;;;2.85;1.08;;;20.50;37.70;;;;;;6218096;23;20095;-79
2021/03/06 01:20:11;;;;;;;1.58;1.15;;;20.40;37.80;;;;;;6220641;23;20043;-78
2021/03/06 01:22:38;;;;;;;2.78;1.00;;;20.40;37.70;;;;;;6217574;23;20012;-78
2021/03/06 01:25:05;;;;;;;1.42;0.80;;;20.40;37.80;;;;;;6217046;22;20019;-79
2021/03/06 01:27:31;;;;;;;0.80;0.70;;;20.40;37.70;;;;;;6217347;22;20016;-78
2021/03/06 01:29:56;;;;;;;1.17;0.80;;;20.40;37.70;;;;;;6218181;22;20110;-79
2021/03/06 01:32:22;;;;;;;1.88;1.25;;;20.50;37.90;;;;;;6219850;23;20044;-79
2021/03/06 01:34:47;;;;;;;1.35;0.90;;;20.50;37.70;;;;;;6268288;22;20012;-79
2021/03/06 01:37:13;;;;;;;1.67;0.63;;;20.50;37.70;;;;;;6213358;22;20008;-79
2021/03/06 01:39:39;;;;;;;1.95;0.95;;;20.50;37.80;;;;;;6253991;22;20342;-78
2021/03/06 01:42:05;;;;;;;1.55;0.90;;;20.50;37.70;;;;;;6213845;22;20013;-79
2021/03/06 01:44:31;;;;;;;2.47;0.95;;;20.40;37.80;;;;;;6216131;22;20052;-78
2021/03/06 01:46:58;;;;;;;1.80;0.93;;;20.40;37.50;;;;;;6218399;22;20070;-79
2021/03/06 01:49:25;;;;;;;1.33;0.70;;;20.50;37.70;;;;;;6219070;23;20016;-79
2021/03/06 01:51:51;;;;;;;1.05;0.73;;;20.50;37.40;;;;;;6217331;22;20058;-79
2021/03/06 01:54:22;;;;;;;1.13;0.70;;;20.40;37.70;;;;;;6249201;22;20442;-78
2021/03/06 01:56:48;;;;;;;0.98;0.80;;;20.40;37.80;;;;;;6224544;22;20019;-78
2021/03/06 01:59:14;;;;;;;2.47;0.80;;;20.40;37.70;;;;;;6218867;23;20012;-79
2021/03/06 02:01:40;;;;;;;1.48;0.82;;;20.40;37.60;;;;;;6218956;23;20465;-79
2021/03/06 02:04:07;;;;;;;1.77;0.95;;;20.40;37.80;;;;;;6217735;22;20326;-79
2021/03/06 02:06:33;;;;;;;1.85;0.73;;;20.40;37.60;;;;;;6249228;22;20365;-79
2021/03/06 02:08:58;;;;;;;1.25;0.80;;;20.40;37.50;;;;;;6218870;23;20027;-78
2021/03/06 02:11:47;;;;;;;0.93;0.68;;;20.40;37.60;;;;;;6215763;22;20125;-78
2021/03/06 02:14:32;;;;;;;2.05;0.70;;;20.40;37.50;;;;;;6215314;22;20051;-79
2021/03/06 02:17:11;;;;;;;1.50;0.85;;;20.40;37.80;;;;;;6249274;22;20469;-79
2021/03/06 02:19:51;;;;;;;0.98;0.65;;;20.40;37.60;;;;;;6218116;23;20107;-79
2021/03/06 02:22:46;;;;;;;1.00;0.77;;;20.40;37.60;;;;;;6217643;22;20024;-78
2021/03/06 02:25:28;;;;;;;0.90;0.70;;;20.40;37.70;;;;;;6257679;22;20026;-78
2021/03/06 02:28:14;;;;;;;2.22;1.05;;;20.40;37.80;;;;;;6218506;22;20039;-79
2021/03/06 02:30:41;;;;;;;1.27;1.00;;;20.40;37.90;;;;;;6218746;23;20020;-79
2021/03/06 02:33:08;;;;;;;0.95;0.60;;;20.40;37.50;;;;;;6219045;23;20019;-79
2021/03/06 02:35:35;;;;;;;1.10;0.82;;;20.40;37.50;;;;;;6218790;22;20039;-79
2021/03/06 02:38:07;;;;;;;1.15;0.70;;;20.30;37.70;;;;;;6194087;23;20015;-78
2021/03/06 02:40:35;;;;;;;0.85;0.70;;;20.40;38.20;;;;;;6218905;23;20078;-79
2021/03/06 02:43:02;;;;;;;0.90;0.50;;;20.40;37.70;;;;;;6216628;23;20023;-79
2021/03/06 02:45:29;;;;;;;2.38;0.80;;;20.40;37.70;;;;;;6217060;22;20012;-78
2021/03/06 02:47:56;;;;;;;1.35;0.77;;;20.30;37.70;;;;;;6223806;22;20011;-79
2021/03/06 02:50:21;;;;;;;0.88;0.60;;;20.40;37.70;;;;;;6221079;22;20046;-79
2021/03/06 02:52:48;;;;;;;1.70;0.80;;;20.30;37.70;;;;;;6248857;22;20015;-79
2021/03/06 02:55:16;;;;;;;0.52;0.50;;;20.40;37.60;;;;;;6248993;22;20456;-79
2021/03/06 02:58:06;;;;;;;2.38;0.80;;;20.30;37.90;;;;;;6248502;22;20015;-79
2021/03/06 03:00:42;;;;;;;1.42;0.70;;;20.40;37.70;;;;;;6246493;22;20197;-79
2021/03/06 03:03:16;;;;;;;1.00;0.70;;;20.40;37.70;;;;;;6219279;22;20065;-79
2021/03/06 03:06:09;;;;;;;1.08;0.57;;;20.30;37.70;;;;;;6216269;22;20051;-79
2021/03/06 03:08:42;;;;;;;1.40;0.68;;;20.40;37.70;;;;;;6218557;23;20105;-79
2021/03/06 03:11:11;;;;;;;1.67;1.13;;;20.30;37.80;;;;;;6221843;23;20403;-79
2021/03/06 03:13:42;;;;;;;1.30;0.70;;;20.30;37.50;;;;;;6218568;23;20022;-79
2021/03/06 03:16:19;;;;;;;1.55;0.80;;;20.30;37.70;;;;;;6243828;23;20050;-78
2021/03/06 03:18:50;;;;;;;1.38;0.80;;;20.30;37.70;;;;;;6218606;23;20095;-79
2021/03/06 03:21:19;;;;;;;1.75;0.70;;;20.30;37.40;;;;;;6218627;23;20016;-79
2021/03/06 03:24:10;;;;;;;0.88;0.70;;;20.30;37.80;;;;;;6193494;22;20027;-78
2021/03/06 03:26:39;;;;;;;1.13;1.02;;;20.30;37.60;;;;;;6215707;23;20020;-79
2021/03/06 03:29:05;;;;;;;0.95;0.60;;;20.30;37.60;;;;;;6220046;22;20020;-79
2021/03/06 03:31:33;;;;;;;1.83;0.80;;;20.30;37.60;;;;;;6220962;22;20011;-79
2021/03/06 03:33:58;;;;;;;1.05;0.60;;;20.30;37.40;;;;;;6220067;22;20047;-79
2021/03/06 03:36:26;;;;;;;1.30;0.60;;;20.30;37.70;;;;;;6200600;23;20019;-78
2021/03/06 03:38:53;;;;;;;1.40;0.70;;;20.30;37.70;;;;;;6254552;22;20027;-79
2021/03/06 03:41:20;;;;;;;0.88;0.68;;;20.30;37.90;;;;;;6218345;23;20020;-78
2021/03/06 03:43:46;;;;;;;0.93;0.77;;;20.30;37.80;;;;;;6218270;22;20016;-79
2021/03/06 03:46:11;;;;;;;1.17;1.00;;;20.30;37.90;;;;;;6215878;23;20012;-79
2021/03/06 03:48:41;;;;;;;1.20;0.75;;;20.30;37.90;;;;;;6254665;22;20020;-78
2021/03/06 03:51:07;;;;;;;0.80;0.80;;;20.30;37.80;;;;;;6217894;22;20008;-78
2021/03/06 03:53:33;;;;;;;0.70;0.65;;;20.30;37.40;;;;;;6255167;22;20020;-79
2021/03/06 03:56:00;;;;;;;1.70;0.60;;;20.30;37.80;;;;;;6220318;22;20023;-78
2021/03/06 03:58:26;;;;;;;1.30;0.65;;;20.30;37.70;;;;;;6218656;22;20083;-79
2021/03/06 04:00:57;;;;;;;0.60;0.60;;;20.30;37.40;;;;;;6214011;23;20346;-79
2021/03/06 04:03:23;;;;;;;0.40;0.40;;;20.20;37.80;;;;;;6219294;22;20023;-79
2021/03/06 04:05:50;;;;;;;1.80;0.90;;;20.30;37.70;;;;;;6218559;23;20012;-79
2021/03/06 04:08:16;;;;;;;1.33;0.70;;;20.30;37.70;;;;;;6266429;22;20023;-79
2021/03/06 04:10:41;;;;;;;1.00;0.68;;;20.30;37.70;;;;;;6214938;23;20012;-79
2021/03/06 04:13:09;;;;;;;0.85;0.70;;;20.30;37.60;;;;;;6218792;22;20062;-79
2021/03/06 04:15:35;;;;;;;0.55;0.50;;;20.30;37.60;;;;;;6256628;22;20066;-78
2021/03/06 04:18:02;;;;;;;1.08;0.68;;;20.20;38.00;;;;;;6220862;22;20012;-79
2021/03/06 04:20:29;;;;;;;4.00;0.93;;;20.30;38.20;;;;;;6216417;22;20081;-78
2021/03/06 04:22:54;;;;;;;0.90;0.70;;;20.30;38.00;;;;;;6218095;23;20019;-79
2021/03/06 04:25:21;;;;;;;1.23;0.47;;;20.30;38.10;;;;;;6214962;22;20019;-79
2021/03/06 04:27:48;;;;;;;1.02;0.70;;;20.30;37.80;;;;;;6248493;22;20345;-79
2021/03/06 04:30:17;;;;;;;0.82;0.60;;;20.30;38.10;;;;;;6248570;22;20012;-79
2021/03/06 04:32:43;;;;;;;1.48;0.60;;;20.30;38.00;;;;;;6248428;22;20008;-79
2021/03/06 04:35:10;;;;;;;0.65;0.40;;;20.30;38.00;;;;;;6220202;23;20381;-79
2021/03/06 04:37:36;;;;;;;1.30;0.60;;;20.30;38.00;;;;;;6202557;22;20016;-78
2021/03/06 04:40:04;;;;;;;1.55;0.85;;;20.30;38.10;;;;;;6219129;22;20039;-79
2021/03/06 04:42:30;;;;;;;0.75;0.60;;;20.30;37.90;;;;;;6218233;22;20039;-79
2021/03/06 04:44:55;;;;;;;0.82;0.57;;;20.30;37.70;;;;;;6216995;22;20433;-79
2021/03/06 04:47:21;;;;;;;0.60;0.50;;;20.30;37.60;;;;;;6223051;22;20020;-79
2021/03/06 04:49:46;;;;;;;2.30;0.60;;;20.30;37.60;;;;;;6220647;23;20129;-78
2021/03/06 04:52:15;;;;;;;0.88;0.60;;;20.30;37.70;;;;;;6217998;22;20031;-78
2021/03/06 04:54:41;;;;;;;0.95;0.50;;;20.30;38.00;;;;;;6218624;22;20098;-78
2021/03/06 04:57:11;;;;;;;0.43;0.43;;;20.30;38.00;;;;;;6222976;22;20445;-79
2021/03/06 04:59:37;;;;;;;0.98;0.63;;;20.30;38.00;;;;;;6275637;22;20551;-79
2021/03/06 05:02:03;;;;;;;2.45;0.80;;;20.30;38.20;;;;;;6223056;22;20045;-78
2021/03/06 05:04:28;;;;;;;0.90;0.77;;;20.30;38.10;;;;;;6217703;22;20027;-79
2021/03/06 05:06:54;;;;;;;0.65;0.50;;;20.30;38.10;;;;;;6217813;22;20015;-79
2021/03/06 05:09:19;;;;;;;0.50;0.50;;;20.30;38.20;;;;;;6224188;23;20023;-78
2021/03/06 05:11:45;;;;;;;0.90;0.47;;;20.30;38.20;;;;;;6219720;22;20012;-78
2021/03/06 05:14:10;;;;;;;1.35;0.65;;;20.30;37.90;;;;;;6275229;22;20023;-79
2021/03/06 05:16:37;;;;;;;1.30;0.65;;;20.30;37.90;;;;;;6248573;22;20064;-78
2021/03/06 05:19:03;;;;;;;1.13;0.60;;;20.30;37.90;;;;;;6217687;22;20062;-78
2021/03/06 05:21:29;;;;;;;0.68;0.63;;;20.30;38.10;;;;;;6219237;22;20012;-78
2021/03/06 05:23:54;;;;;;;1.27;0.70;;;20.30;37.90;;;;;;6218937;23;20018;-78
2021/03/06 05:26:20;;;;;;;1.35;0.93;;;20.20;37.90;;;;;;6247933;22;20055;-78
2021/03/06 05:28:45;;;;;;;0.98;0.85;;;20.20;38.10;;;;;;6219639;23;20011;-78
2021/03/06 05:31:11;;;;;;;0.68;0.60;;;20.20;38.00;;;;;;6222486;22;20014;-78
2021/03/06 05:33:37;;;;;;;1.10;0.65;;;20.30;38.10;;;;;;6210677;22;20039;-78
2021/03/06 05:36:03;;;;;;;0.50;0.50;;;20.20;38.10;;;;;;6250015;22;20050;-78
2021/03/06 05:38:28;;;;;;;1.20;0.70;;;20.20;37.90;;;;;;6220645;22;20113;-78
2021/03/06 05:40:54;;;;;;;1.13;0.73;;;20.20;37.90;;;;;;6221979;22;20434;-78
2021/03/06 05:43:20;;;;;;;1.48;0.60;;;20.20;37.90;;;;;;6218906;23;20012;-78
2021/03/06 05:45:47;;;;;;;3.80;0.95;;;20.20;37.90;;;;;;6219670;22;20450;-78
2021/03/06 05:48:13;;;;;;;0.82;0.80;;;20.20;38.50;;;;;;6220737;22;20019;-78
2021/03/06 05:50:40;;;;;;;0.43;0.43;;;20.20;37.90;;;;;;6217973;22;20018;-78
2021/03/06 05:53:29;;;;;;;0.82;0.40;;;20.20;37.60;;;;;;6218620;22;20073;-78
2021/03/06 05:56:49;;;;;;;1.63;0.60;;;20.20;37.90;;;;;;6240770;23;20016;-78
2021/03/06 05:59:58;;;;;;;0.80;0.60;;;20.20;37.90;;;;;;6248095;22;20015;-78
2021/03/06 06:02:49;;;;;;;0.68;0.50;;;20.20;37.70;;;;;;6211673;23;20020;-79
2021/03/06 06:10:05;;;;;;;1.30;0.60;;;20.20;37.90;;;;;;6205938;23;20016;-78
2021/03/06 06:16:46;;;;;;;1.02;0.70;;;20.20;37.80;;;;;;6181867;23;20096;-78
2021/03/06 06:23:26;;;;;;;0.45;0.40;;;20.20;38.00;;;;;;6180041;23;20047;-78
2021/03/06 06:30:39;;;;;;;0.52;0.50;;;20.20;37.90;;;;;;6205689;23;20099;-78
2021/03/06 06:33:38;;;;;;;1.30;0.40;;;20.20;37.90;;;;;;6092443;23;20032;-78
2021/03/06 06:37:05;;;;;;;0.57;0.57;;;20.20;38.00;;;;;;6136311;23;20099;-78
2021/03/06 06:43:32;;;;;;;0.95;0.70;;;20.20;37.90;;;;;;6206529;23;20100;-79
2021/03/06 06:50:53;;;;;;;0.85;0.65;;;20.20;37.90;;;;;;6181924;23;20025;-78
2021/03/06 06:53:54;;;;;;;1.15;0.57;;;20.20;37.80;;;;;;5979920;23;20017;-79
2021/03/06 06:57:33;;;;;;;0.55;0.55;;;20.20;37.80;;;;;;5985967;23;20111;-79
2021/03/06 07:00:29;;;;;;;0.52;0.52;;;20.20;37.90;;;;;;6053323;23;20045;-79
2021/03/06 07:03:24;;;;;;;0.85;0.73;;;20.20;37.90;;;;;;6116332;23;20096;-79
2021/03/06 07:06:17;;;;;;;2.17;0.73;;;20.30;37.60;;;;;;6215127;23;20469;-78
2021/03/06 07:12:28;;;;;;;1.00;0.50;;;20.30;38.00;;;;;;6264512;22;20023;-78
2021/03/06 07:15:51;;;;;;;;;;;;;;;;;;;;;
2021/03/06 07:26:18;;;;;;;0.68;0.50;;;20.30;37.80;;;;;;6096856;23;20460;-78
2021/03/06 07:29:19;;;;;;;0.82;0.65;;;20.20;37.90;;;;;;6195931;22;20019;-78
2021/03/06 07:33:03;;;;;;;0.47;0.47;;;20.20;38.00;;;;;;6254745;22;20027;-78
2021/03/06 07:35:50;;;;;;;;;;;20.30;37.90;;;;;;6242663;22;20012;-79
2021/03/06 07:38:42;;;;;;;0.75;0.57;;;20.30;38.20;;;;;;6241101;22;19911;-79
2021/03/06 07:41:45;;;;;;;0.85;0.43;;;20.30;38.10;;;;;;6229755;22;20023;-79
2021/03/06 07:44:47;;;;;;;1.35;0.77;;;20.20;38.00;;;;;;6222225;22;20027;-79
2021/03/06 07:54:24;;;;;;;1.15;0.60;;;20.20;38.10;;;;;;6275697;22;20094;-79
2021/03/06 07:57:27;;;;;;;1.48;0.70;;;20.20;38.00;;;;;;6248041;22;20030;-79
2021/03/06 08:04:41;;;;;;;1.05;0.52;;;20.20;38.00;;;;;;6275935;22;20030;-79
2021/03/06 08:08:21;;;;;;;;;;;;;;;;;;;;;
2021/03/06 08:19:16;;;;;;;;;;;;;;;;;;;;;
2021/03/06 08:29:57;;;;;;;0.65;0.50;;;20.20;38.00;;;;;;6211294;23;20099;-79
2021/03/06 08:33:21;;;;;;;0.45;0.40;;;20.20;38.10;;;;;;6156898;23;20018;-79
2021/03/06 08:43:56;;;;;;;0.50;0.40;;;20.20;38.20;;;;;;6215880;23;20389;-79
2021/03/06 08:46:59;;;;;;;0.50;0.40;;;20.20;38.20;;;;;;6188020;23;20020;-79
2021/03/06 08:50:30;;;;;;;0.80;0.60;;;20.20;38.20;;;;;;6203960;22;20078;-78
2021/03/06 08:57:41;;;;;;;1.05;0.47;;;20.20;38.00;;;;;;6254110;22;20364;-79
2021/03/06 09:04:49;;;;;;;;;;;;;;;;;;;;;
2021/03/06 09:15:27;;;;;;;0.45;0.45;;;20.30;38.20;;;;;;6180344;23;20375;-79
2021/03/06 09:19:18;;;;;;;;;;;;;;;;;;;;;
2021/03/06 09:22:18;;;;;;;0.60;0.50;;;20.30;38.30;;;;;;6212428;23;20102;-79
2021/03/06 09:25:38;;;;;;;0.50;0.50;;;20.30;38.30;;;;;;6157107;23;20160;-79
2021/03/06 09:28:38;;;;;;;0.90;0.50;;;20.40;38.20;;;;;;6099766;23;20117;-79
2021/03/06 09:37:45;;;;;;;0.90;0.50;;;20.30;38.40;;;;;;6209592;22;20098;-79
2021/03/06 09:52:36;;;;;;;0.40;0.40;;;20.30;38.50;;;;;;6181073;23;20456;-79
2021/03/06 09:59:22;;;;;;;0.43;0.43;;;20.30;38.40;;;;;;6134543;23;20337;-79
2021/03/06 10:17:43;;;;;;;0.60;0.50;;;20.20;38.50;;;;;;6122846;23;20033;-79
2021/03/06 10:32:17;;;;;;;0.47;0.47;;;20.30;38.30;;;;;;6034635;23;20027;-78
2021/03/06 10:36:24;;;;;;;;;;;;;;;;;;;;;
2021/03/06 10:42:55;;;;;;;0.40;0.40;;;20.30;38.40;;;;;;6063815;23;20376;-79
2021/03/06 10:46:15;;;;;;;0.55;0.50;;;20.30;38.40;;;;;;6045021;23;20373;-79
2021/03/06 10:50:04;;;;;;;0.50;0.50;;;20.40;38.40;;;;;;6044436;23;20026;-79
2021/03/06 10:52:55;;;;;;;0.32;0.32;;;20.30;38.30;;;;;;6007444;23;20114;-79
2021/03/06 10:59:49;;;;;;;0.55;0.52;;;20.30;38.40;;;;;;6125173;23;20052;-78
2021/03/06 11:03:14;;;;;;;1.08;0.50;;;20.30;38.50;;;;;;6125646;23;20431;-79
2021/03/06 11:06:52;;;;;;;0.30;0.30;;;20.30;38.50;;;;;;6190873;23;20027;-79
2021/03/06 11:10:20;;;;;;;0.50;0.50;;;20.20;38.60;;;;;;6211591;23;20103;-79
2021/03/06 11:13:43;;;;;;;0.50;0.47;;;20.20;38.60;;;;;;6202327;22;20027;-79
2021/03/06 11:20:31;;;;;;;0.47;0.47;;;20.30;38.60;;;;;;6199442;23;20032;-79
2021/03/06 11:23:20;;;;;;;0.35;0.35;;;20.30;38.60;;;;;;6219672;22;20433;-78
2021/03/06 11:30:01;;;;;;;0.40;0.40;;;20.30;38.60;;;;;;6233766;22;20438;-79
2021/03/06 11:36:30;;;;;;;0.63;0.50;;;20.30;38.50;;;;;;6174790;23;20017;-79
2021/03/06 11:44:16;;;;;;;;;;;;;;;;;;;;;
2021/03/06 11:47:46;;;;;;;0.60;0.60;;;20.30;38.70;;;;;;6182224;23;20109;-79
2021/03/06 11:50:53;;;;;;;0.80;0.63;;;20.30;38.60;;;;;;6155569;23;20029;-78
2021/03/06 11:54:27;;;;;;;0.43;0.43;;;20.30;38.60;;;;;;6130374;23;20092;-79
2021/03/06 11:57:41;;;;;;;;;;;;;;;;;;;;;
2021/03/06 12:01:38;;;;;;;;;;;;;;;;;;;;;
2021/03/06 12:08:01;;;;;;;0.68;0.57;;;20.30;38.50;;;;;;6220362;22;20103;-78
2021/03/06 12:17:09;;;;;;;0.98;0.50;;;20.30;38.60;;;;;;6201486;22;20103;-79
2021/03/06 12:19:49;;;;;;;0.47;0.47;;;20.30;38.50;;;;;;6222987;22;20025;-79
2021/03/06 12:22:37;;;;;;;0.40;0.40;;;20.30;38.50;;;;;;6275337;22;20016;-79
2021/03/06 12:25:23;;;;;;;0.30;0.30;;;20.30;38.50;;;;;;6244463;22;20089;-78
2021/03/06 12:27:53;;;;;;;0.30;0.30;;;20.30;38.50;;;;;;6217874;22;20016;-79
2021/03/06 12:31:16;;;;;;;1.90;0.63;;;20.30;38.50;;;;;;6214419;22;20024;-79
2021/03/06 12:33:42;;;;;;;0.40;0.40;;;20.30;38.40;;;;;;6244751;22;20066;-78
2021/03/06 12:36:21;;;;;;;0.40;0.40;;;20.30;38.40;;;;;;6249107;22;20040;-78
2021/03/06 12:39:32;;;;;;;0.55;0.40;;;20.40;38.50;;;;;;6223745;22;20462;-78
2021/03/06 12:45:23;;;;;;;0.47;0.40;;;20.30;38.60;;;;;;6220097;23;20020;-79
2021/03/06 12:51:50;;;;;;;0.40;0.30;;;20.30;38.50;;;;;;6214531;23;20016;-79
2021/03/06 12:54:57;;;;;;;0.30;0.30;;;20.30;38.60;;;;;;6241676;23;20108;-79
2021/03/06 12:57:54;;;;;;;0.40;0.40;;;20.40;38.40;;;;;;6191531;23;20035;-79
2021/03/06 13:00:31;;;;;;;0.47;0.40;;;20.50;38.40;;;;;;6205634;23;20020;-79
2021/03/06 13:02:59;;;;;;;0.73;0.40;;;20.50;38.40;;;;;;6223730;23;20385;-78
2021/03/06 13:06:11;;;;;;;0.85;0.43;;;20.50;38.40;;;;;;6192848;22;20023;-78
2021/03/06 13:11:50;;;;;;;0.40;0.40;;;20.50;38.50;;;;;;6272810;22;20015;-79
2021/03/06 13:14:27;;;;;;;1.00;0.60;;;20.40;38.40;;;;;;6275084;22;20039;-79
2021/03/06 13:17:31;;;;;;;0.50;0.40;;;20.40;38.70;;;;;;6266458;22;20043;-79
2021/03/06 13:20:23;;;;;;;2.72;0.50;;;20.40;38.60;;;;;;6268146;22;20015;-79
2021/03/06 13:22:51;;;;;;;0.40;0.40;;;20.40;38.60;;;;;;6248077;22;20023;-79
2021/03/06 13:25:18;;;;;;;0.38;0.38;;;20.40;38.50;;;;;;6274980;22;20016;-79
2021/03/06 13:28:23;;;;;;;0.40;0.40;;;20.40;38.50;;;;;;6247936;22;20043;-79
2021/03/06 13:31:09;;;;;;;0.43;0.43;;;20.40;38.50;;;;;;6266789;22;20019;-79
2021/03/06 13:33:37;;;;;;;0.35;0.35;;;20.40;38.50;;;;;;6273990;22;20008;-79
2021/03/06 13:36:43;;;;;;;0.43;0.32;;;20.40;38.40;;;;;;6272912;22;20097;-79
2021/03/06 13:39:18;;;;;;;0.30;0.30;;;20.50;38.40;;;;;;6214687;22;20076;-79
2021/03/06 13:41:44;;;;;;;0.50;0.43;;;20.70;38.10;;;;;;6273137;22;20488;-79
2021/03/06 13:48:41;;;;;;;0.47;0.40;;;20.90;37.70;;;;;;6152915;23;20060;-79
2021/03/06 13:51:07;;;;;;;0.50;0.50;;;21.20;37.30;;;;;;6149603;23;20020;-79
2021/03/06 13:53:57;;;;;;;1.38;0.50;;;21.40;37.10;;;;;;6128201;23;20029;-79
2021/03/06 13:56:58;;;;;;;0.47;0.40;;;21.50;37.00;;;;;;6216439;22;20024;-79
2021/03/06 14:00:07;;;;;;;0.40;0.40;;;21.60;37.00;;;;;;6221207;22;20022;-79
2021/03/06 14:03:38;;;;;;;0.40;0.40;;;21.50;37.10;;;;;;6224236;22;20020;-79
2021/03/06 14:06:34;;;;;;;0.50;0.50;;;21.40;37.30;;;;;;6218930;22;20012;-79
2021/03/06 14:25:03;;;;;;;0.30;0.30;;;20.90;38.00;;;;;;6238800;22;20018;-79
2021/03/06 14:31:05;;;;;;;0.75;0.55;;;21.00;37.90;;;;;;6210908;22;20446;-79
2021/03/06 14:33:43;;;;;;;0.43;0.43;;;21.10;37.70;;;;;;6218746;22;20012;-79
2021/03/06 14:40:11;;;;;;;0.43;0.43;;;21.00;37.90;;;;;;6264735;22;20107;-79
2021/03/06 14:47:16;;;;;;;0.40;0.40;;;20.80;38.20;;;;;;6113928;23;20112;-79
2021/03/06 14:50:01;;;;;;;0.47;0.40;;;20.60;38.30;;;;;;6122530;23;20353;-79
2021/03/06 14:52:56;;;;;;;1.75;0.40;;;20.60;38.40;;;;;;6098630;23;20009;-79
2021/03/06 14:56:14;;;;;;;0.75;0.40;;;20.60;38.40;;;;;;6150266;23;20476;-79
2021/03/06 14:59:27;;;;;;;0.55;0.50;;;20.50;38.60;;;;;;6150721;23;20030;-79
2021/03/06 15:02:31;;;;;;;0.50;0.35;;;20.50;38.80;;;;;;6162821;23;20024;-79
2021/03/06 15:05:50;;;;;;;0.40;0.40;;;20.40;38.80;;;;;;6185777;23;20374;-79
2021/03/06 15:08:57;;;;;;;0.32;0.32;;;20.40;38.80;;;;;;6164639;23;20099;-78
2021/03/06 15:12:03;;;;;;;0.30;0.30;;;20.50;38.70;;;;;;6211823;23;20009;-79
2021/03/06 15:19:09;;;;;;;0.55;0.40;;;20.50;38.60;;;;;;6210446;23;20598;-79
2021/03/06 15:21:51;;;;;;;0.40;0.40;;;20.50;38.60;;;;;;6211703;23;20513;-78
2021/03/06 15:24:24;;;;;;;0.98;0.40;;;20.50;38.60;;;;;;6212220;23;20036;-79
2021/03/06 15:26:54;;;;;;;0.88;0.40;;;20.50;38.50;;;;;;6241894;22;20028;-79
2021/03/06 15:30:20;;;;;;;0.43;0.43;;;20.50;38.60;;;;;;6267705;22;20043;-79
2021/03/06 15:33:22;;;;;;;0.65;0.40;;;20.40;38.60;;;;;;6215012;23;20338;-79
2021/03/06 15:36:08;;;;;;;0.30;0.30;;;20.40;38.50;;;;;;6263945;22;20098;-79
2021/03/06 15:39:03;;;;;;;0.40;0.40;;;20.40;38.60;;;;;;6213374;22;20070;-79
2021/03/06 15:42:00;;;;;;;;;;;;;;;;;;;;;
2021/03/06 15:48:47;;;;;;;0.80;0.40;;;20.40;38.40;;;;;;6217192;22;20051;-79
2021/03/06 15:51:44;;;;;;;0.88;0.40;;;20.40;38.70;;;;;;6226659;22;20073;-79
2021/03/06 15:54:55;;;;;;;0.38;0.38;;;20.40;38.50;;;;;;6223919;22;20159;-78
2021/03/06 15:58:16;;;;;;;0.50;0.50;;;20.40;38.70;;;;;;6095938;23;20109;-79
2021/03/06 16:01:35;;;;;;;1.33;0.57;;;20.30;38.70;;;;;;6127198;23;20173;-79
2021/03/06 16:04:26;;;;;;;0.40;0.40;;;20.30;38.70;;;;;;6181660;23;20027;-79
2021/03/06 16:07:12;;;;;;;0.63;0.43;;;20.40;38.70;;;;;;6156035;23;20017;-79
2021/03/06 16:13:29;;;;;;;0.35;0.35;;;20.30;38.70;;;;;;6172721;23;20096;-79
2021/03/06 16:16:59;;;;;;;0.40;0.32;;;20.30;38.80;;;;;;6190546;22;20019;-78
2021/03/06 16:20:05;;;;;;;;;;;;;;;;;;;;;
2021/03/06 16:23:39;;;;;;;0.30;0.30;;;20.30;38.70;;;;;;6250222;22;20016;-78
2021/03/06 16:29:52;;;;;;;0.30;0.30;;;20.30;38.50;;;;;;6217900;22;20026;-79
2021/03/06 16:32:27;;;;;;;0.40;0.30;;;20.30;38.60;;;;;;6247880;22;20445;-79
2021/03/06 16:34:55;;;;;;;0.95;0.60;;;20.30;38.70;;;;;;6223838;22;20015;-79
2021/03/06 16:37:46;;;;;;;1.25;0.50;;;20.30;38.70;;;;;;6214977;22;20027;-78
2021/03/06 16:41:04;;;;;;;0.40;0.30;;;20.30;38.80;;;;;;6122134;23;20022;-78
2021/03/06 16:44:48;;;;;;;0.40;0.40;;;20.30;38.60;;;;;;6156074;23;20414;-78
2021/03/06 16:47:59;;;;;;;0.40;0.40;;;20.20;38.70;;;;;;6091035;23;20105;-79
2021/03/06 16:54:26;;;;;;;0.57;0.45;;;20.20;38.60;;;;;;6093651;23;20097;-79
2021/03/06 16:57:48;;;;;;;0.50;0.50;;;20.20;38.70;;;;;;6155449;23;20021;-78
2021/03/06 17:00:48;;;;;;;0.30;0.30;;;20.20;38.80;;;;;;6068678;23;20029;-79
2021/03/06 17:03:59;;;;;;;0.40;0.40;;;20.20;38.60;;;;;;6151792;23;20092;-79
2021/03/06 17:07:16;;;;;;;0.40;0.40;;;20.10;38.60;;;;;;6145162;23;20027;-79
2021/03/06 17:10:34;;;;;;;0.55;0.50;;;20.20;38.70;;;;;;6181157;23;20104;-79
2021/03/06 17:13:03;;;;;;;0.40;0.40;;;20.20;38.60;;;;;;6215115;23;20098;-79
2021/03/06 17:15:37;;;;;;;0.68;0.55;;;20.20;38.70;;;;;;6241902;23;20024;-79
2021/03/06 17:18:05;;;;;;;0.38;0.38;;;20.10;38.60;;;;;;6188875;23;20016;-79
2021/03/06 17:20:31;;;;;;;0.35;0.35;;;20.20;38.60;;;;;;6193275;23;20020;-79
2021/03/06 17:23:02;;;;;;;0.40;0.40;;;20.10;38.70;;;;;;6243165;23;20950;-78
2021/03/06 17:25:28;;;;;;;0.40;0.40;;;20.10;38.80;;;;;;6243882;23;20475;-78
2021/03/06 17:27:53;;;;;;;0.43;0.40;;;20.10;38.70;;;;;;6217810;23;20055;-79
2021/03/06 17:30:20;;;;;;;0.60;0.50;;;20.10;38.60;;;;;;6247060;22;20339;-78
2021/03/06 17:32:46;;;;;;;0.40;0.38;;;20.10;38.70;;;;;;6276617;22;20019;-79
2021/03/06 17:35:12;;;;;;;0.30;0.30;;;20.10;38.70;;;;;;6249799;22;20016;-79
2021/03/06 17:37:38;;;;;;;0.82;0.50;;;20.10;39.20;;;;;;6274883;22;20016;-78
2021/03/06 17:40:09;;;;;;;0.50;0.30;;;20.10;38.70;;;;;;6249355;22;20016;-78
2021/03/06 17:42:35;;;;;;;0.53;0.30;;;20.10;38.60;;;;;;6275399;22;20099;-79
2021/03/06 17:45:02;;;;;;;0.63;0.30;;;20.10;38.60;;;;;;6249687;22;20051;-79
2021/03/06 17:47:28;;;;;;;0.30;0.30;;;20.10;38.70;;;;;;6274923;22;20015;-79
2021/03/06 17:49:54;;;;;;;0.32;0.32;;;20.10;38.70;;;;;;6249394;22;20510;-79
2021/03/06 17:52:19;;;;;;;0.30;0.30;;;20.10;38.70;;;;;;6276820;22;20004;-79
2021/03/06 17:54:45;;;;;;;0.40;0.40;;;20.10;38.70;;;;;;6277011;22;20123;-79
2021/03/06 17:57:10;;;;;;;0.50;0.43;;;20.10;38.60;;;;;;6249779;22;20017;-79
2021/03/06 17:59:36;;;;;;;0.38;0.38;;;20.10;38.50;;;;;;6249808;22;20452;-79
2021/03/06 18:02:02;;;;;;;0.40;0.30;;;20.10;39.20;;;;;;6249180;22;20011;-79
2021/03/06 18:04:28;;;;;;;0.63;0.63;;;20.10;38.50;;;;;;6249281;22;20015;-79
2021/03/06 18:06:55;;;;;;;0.38;0.38;;;20.10;38.60;;;;;;6274900;22;20012;-79
2021/03/06 18:09:21;;;;;;;0.40;0.40;;;20.10;38.40;;;;;;6274780;22;20019;-79
2021/03/06 18:11:46;;;;;;;0.30;0.30;;;20.10;38.60;;;;;;6276437;22;20014;-79
2021/03/06 18:14:12;;;;;;;0.65;0.40;;;20.10;38.70;;;;;;6274997;22;20376;-78